CheckWX is a tool to help pilots better visualize weather data.  It is not intended as a substitute for an official pre-flight weather briefing.

21:03:59 UTC

KFYJ METAR
Middle Peninsula Regional Airport
West Point, Virginia, USA
Current

9 mins ago

KFYJ 232055Z AUTO 21008KT 10SM CLR 28/22 A3006 RMK AO1 T02780220
Observed
May-23 @ 20:55 UTC
Wind
  • 210° at 8 KTS
Visibility
10 SM
Flight Rules
VFR
Cloud Levels
  • Clear skies
Temperature
28°C / 82°F
Dewpoint
22°C / 72°F
Heat Index
30°C / 86°F
Humidity
70%
Altimeter
30.06" Hg
Pressure
1017.92 hPa
Previous

29 mins ago

KFYJ 232035Z AUTO 20011G15KT 10SM CLR 29/23 A3006 RMK AO1 T02880226
Observed
May-23 @ 20:35 UTC
Wind
  • 200° at 11 KTS
  • Gusting to 15 KTS
Visibility
10 SM
Flight Rules
VFR
Cloud Levels
  • Clear skies
Temperature
29°C / 84°F
Dewpoint
23°C / 73°F
Heat Index
32°C / 90°F
Humidity
70%
Altimeter
30.06" Hg
Pressure
1017.92 hPa
Previous

2 hours ago

KFYJ 231915Z AUTO 23010G14KT 10SM CLR 29/22 A3010 RMK AO1 T02890219
Observed
May-23 @ 19:15 UTC
Wind
  • 230° at 10 KTS
  • Gusting to 14 KTS
Visibility
10 SM
Flight Rules
VFR
Cloud Levels
  • Clear skies
Temperature
29°C / 84°F
Dewpoint
22°C / 72°F
Heat Index
32°C / 89°F
Humidity
66%
Altimeter
30.1" Hg
Pressure
1019.32 hPa